sensor_id;sensor_type;location;lat;lon;timestamp;temperature;humidity
37910;DHT22;23741;49.446;8.754;2023-04-03T00:00:08;9.50;62.90
37910;DHT22;23741;49.446;8.754;2023-04-03T00:02:11;9.40;62.80
37910;DHT22;23741;49.446;8.754;2023-04-03T00:04:13;9.40;62.80
37910;DHT22;23741;49.446;8.754;2023-04-03T00:06:14;9.40;62.80
37910;DHT22;23741;49.446;8.754;2023-04-03T00:08:16;9.30;62.90
37910;DHT22;23741;49.446;8.754;2023-04-03T00:10:18;9.30;62.80
37910;DHT22;23741;49.446;8.754;2023-04-03T00:12:20;9.30;62.90
37910;DHT22;23741;49.446;8.754;2023-04-03T00:14:21;9.20;63.00
37910;DHT22;23741;49.446;8.754;2023-04-03T00:16:23;9.20;63.20
37910;DHT22;23741;49.446;8.754;2023-04-03T00:18:25;9.10;63.30
37910;DHT22;23741;49.446;8.754;2023-04-03T00:20:27;9.10;63.30
37910;DHT22;23741;49.446;8.754;2023-04-03T00:22:28;9.00;63.40
37910;DHT22;23741;49.446;8.754;2023-04-03T00:24:30;9.10;63.40
37910;DHT22;23741;49.446;8.754;2023-04-03T00:26:32;9.00;63.60
37910;DHT22;23741;49.446;8.754;2023-04-03T00:28:33;9.00;63.60
37910;DHT22;23741;49.446;8.754;2023-04-03T00:30:35;9.00;63.80
37910;DHT22;23741;49.446;8.754;2023-04-03T00:32:38;9.00;63.60
37910;DHT22;23741;49.446;8.754;2023-04-03T00:34:39;9.00;63.70
37910;DHT22;23741;49.446;8.754;2023-04-03T00:36:41;9.00;63.70
37910;DHT22;23741;49.446;8.754;2023-04-03T00:38:43;9.00;63.60
37910;DHT22;23741;49.446;8.754;2023-04-03T00:40:46;8.90;63.60
37910;DHT22;23741;49.446;8.754;2023-04-03T00:42:48;8.90;63.60
37910;DHT22;23741;49.446;8.754;2023-04-03T00:46:59;8.90;63.60
37910;DHT22;23741;49.446;8.754;2023-04-03T00:49:00;8.90;63.60
37910;DHT22;23741;49.446;8.754;2023-04-03T00:51:03;8.90;63.80
37910;DHT22;23741;49.446;8.754;2023-04-03T00:53:06;8.90;63.60
37910;DHT22;23741;49.446;8.754;2023-04-03T00:55:08;8.90;63.70
37910;DHT22;23741;49.446;8.754;2023-04-03T00:57:10;8.90;63.70
37910;DHT22;23741;49.446;8.754;2023-04-03T00:59:16;8.90;63.80
37910;DHT22;23741;49.446;8.754;2023-04-03T01:01:23;8.90;63.70
37910;DHT22;23741;49.446;8.754;2023-04-03T01:03:26;8.90;63.70
37910;DHT22;23741;49.446;8.754;2023-04-03T01:05:28;8.90;63.60
37910;DHT22;23741;49.446;8.754;2023-04-03T01:07:30;8.90;63.50
37910;DHT22;23741;49.446;8.754;2023-04-03T01:09:33;8.90;63.20
37910;DHT22;23741;49.446;8.754;2023-04-03T01:11:35;8.80;63.40
37910;DHT22;23741;49.446;8.754;2023-04-03T01:13:37;8.90;63.50
37910;DHT22;23741;49.446;8.754;2023-04-03T01:15:40;8.80;63.60
37910;DHT22;23741;49.446;8.754;2023-04-03T01:19:44;8.80;63.70
37910;DHT22;23741;49.446;8.754;2023-04-03T01:24:09;8.80;63.80
37910;DHT22;23741;49.446;8.754;2023-04-03T01:26:13;8.80;63.90
37910;DHT22;23741;49.446;8.754;2023-04-03T01:28:16;8.80;63.80
37910;DHT22;23741;49.446;8.754;2023-04-03T01:30:20;8.80;63.80
37910;DHT22;23741;49.446;8.754;2023-04-03T01:32:22;8.80;63.70
37910;DHT22;23741;49.446;8.754;2023-04-03T01:34:24;8.80;63.80
37910;DHT22;23741;49.446;8.754;2023-04-03T01:36:28;8.80;63.70
37910;DHT22;23741;49.446;8.754;2023-04-03T01:38:31;8.70;63.80
37910;DHT22;23741;49.446;8.754;2023-04-03T01:40:33;8.70;63.70
37910;DHT22;23741;49.446;8.754;2023-04-03T01:42:35;8.70;63.80
37910;DHT22;23741;49.446;8.754;2023-04-03T01:44:36;8.70;63.70
37910;DHT22;23741;49.446;8.754;2023-04-03T01:46:38;8.70;63.70
37910;DHT22;23741;49.446;8.754;2023-04-03T01:48:40;8.70;63.60
37910;DHT22;23741;49.446;8.754;2023-04-03T01:50:42;8.60;63.70
37910;DHT22;23741;49.446;8.754;2023-04-03T01:52:44;8.60;63.90
37910;DHT22;23741;49.446;8.754;2023-04-03T01:54:45;8.60;63.90
37910;DHT22;23741;49.446;8.754;2023-04-03T01:56:47;8.60;64.00
37910;DHT22;23741;49.446;8.754;2023-04-03T01:58:49;8.60;64.10
37910;DHT22;23741;49.446;8.754;2023-04-03T02:00:51;8.60;64.10
37910;DHT22;23741;49.446;8.754;2023-04-03T02:02:53;8.50;64.10
37910;DHT22;23741;49.446;8.754;2023-04-03T02:04:55;8.50;64.00
37910;DHT22;23741;49.446;8.754;2023-04-03T02:06:56;8.50;63.90
37910;DHT22;23741;49.446;8.754;2023-04-03T02:08:59;8.50;63.90
37910;DHT22;23741;49.446;8.754;2023-04-03T02:11:00;8.50;63.90
37910;DHT22;23741;49.446;8.754;2023-04-03T02:13:02;8.50;64.00
37910;DHT22;23741;49.446;8.754;2023-04-03T02:15:04;8.40;64.10
37910;DHT22;23741;49.446;8.754;2023-04-03T02:17:06;8.40;64.10
37910;DHT22;23741;49.446;8.754;2023-04-03T02:19:10;8.50;64.20
37910;DHT22;23741;49.446;8.754;2023-04-03T02:21:11;8.40;64.10
37910;DHT22;23741;49.446;8.754;2023-04-03T02:23:13;8.40;64.10
37910;DHT22;23741;49.446;8.754;2023-04-03T02:25:15;8.40;64.00
37910;DHT22;23741;49.446;8.754;2023-04-03T02:27:17;8.40;64.00
37910;DHT22;23741;49.446;8.754;2023-04-03T02:29:18;8.40;64.00
37910;DHT22;23741;49.446;8.754;2023-04-03T02:31:20;8.40;63.90
37910;DHT22;23741;49.446;8.754;2023-04-03T02:33:22;8.40;64.00
37910;DHT22;23741;49.446;8.754;2023-04-03T02:35:25;8.30;63.90
37910;DHT22;23741;49.446;8.754;2023-04-03T02:37:28;8.30;63.90
37910;DHT22;23741;49.446;8.754;2023-04-03T02:39:30;8.30;63.90
37910;DHT22;23741;49.446;8.754;2023-04-03T02:41:33;8.30;64.00
37910;DHT22;23741;49.446;8.754;2023-04-03T02:43:40;8.30;64.00
37910;DHT22;23741;49.446;8.754;2023-04-03T02:45:42;8.20;63.90
37910;DHT22;23741;49.446;8.754;2023-04-03T02:47:44;8.20;63.80
37910;DHT22;23741;49.446;8.754;2023-04-03T02:49:46;8.20;63.80
37910;DHT22;23741;49.446;8.754;2023-04-03T02:51:47;8.20;64.00
37910;DHT22;23741;49.446;8.754;2023-04-03T02:53:49;8.10;63.90
37910;DHT22;23741;49.446;8.754;2023-04-03T02:55:55;8.10;63.80
37910;DHT22;23741;49.446;8.754;2023-04-03T02:57:57;8.10;63.80
37910;DHT22;23741;49.446;8.754;2023-04-03T02:59:59;8.10;63.90
37910;DHT22;23741;49.446;8.754;2023-04-03T03:02:01;8.10;63.80
37910;DHT22;23741;49.446;8.754;2023-04-03T03:04:03;8.10;63.90
37910;DHT22;23741;49.446;8.754;2023-04-03T03:06:06;8.00;63.90
37910;DHT22;23741;49.446;8.754;2023-04-03T03:08:08;8.00;64.00
37910;DHT22;23741;49.446;8.754;2023-04-03T03:10:10;8.00;64.00
37910;DHT22;23741;49.446;8.754;2023-04-03T03:12:11;8.00;64.00
37910;DHT22;23741;49.446;8.754;2023-04-03T03:14:13;8.00;64.10
37910;DHT22;23741;49.446;8.754;2023-04-03T03:16:15;8.00;64.10
37910;DHT22;23741;49.446;8.754;2023-04-03T03:18:16;8.00;64.10
37910;DHT22;23741;49.446;8.754;2023-04-03T03:20:18;7.90;64.20
37910;DHT22;23741;49.446;8.754;2023-04-03T03:22:20;7.90;64.10
37910;DHT22;23741;49.446;8.754;2023-04-03T03:24:21;7.90;64.20
37910;DHT22;23741;49.446;8.754;2023-04-03T03:26:23;7.90;64.30
37910;DHT22;23741;49.446;8.754;2023-04-03T03:28:25;7.90;64.30
37910;DHT22;23741;49.446;8.754;2023-04-03T03:30:27;7.90;64.40
37910;DHT22;23741;49.446;8.754;2023-04-03T03:32:28;7.90;64.50
37910;DHT22;23741;49.446;8.754;2023-04-03T03:34:31;7.90;64.50
37910;DHT22;23741;49.446;8.754;2023-04-03T03:36:33;7.90;64.50
37910;DHT22;23741;49.446;8.754;2023-04-03T03:38:36;7.90;64.60
37910;DHT22;23741;49.446;8.754;2023-04-03T03:40:38;7.90;64.50
37910;DHT22;23741;49.446;8.754;2023-04-03T03:42:40;7.90;64.60
37910;DHT22;23741;49.446;8.754;2023-04-03T03:44:42;7.90;64.60
37910;DHT22;23741;49.446;8.754;2023-04-03T03:46:44;7.90;64.60
37910;DHT22;23741;49.446;8.754;2023-04-03T03:48:46;7.90;64.70
37910;DHT22;23741;49.446;8.754;2023-04-03T03:50:47;7.90;64.70
37910;DHT22;23741;49.446;8.754;2023-04-03T03:52:50;7.90;64.80
37910;DHT22;23741;49.446;8.754;2023-04-03T03:54:52;7.90;64.70
37910;DHT22;23741;49.446;8.754;2023-04-03T03:56:55;7.90;64.70
37910;DHT22;23741;49.446;8.754;2023-04-03T03:58:58;7.90;64.70
37910;DHT22;23741;49.446;8.754;2023-04-03T04:01:01;7.90;64.70
37910;DHT22;23741;49.446;8.754;2023-04-03T04:03:03;7.90;64.70
37910;DHT22;23741;49.446;8.754;2023-04-03T04:05:05;8.00;64.70
37910;DHT22;23741;49.446;8.754;2023-04-03T04:07:07;7.90;64.60
37910;DHT22;23741;49.446;8.754;2023-04-03T04:09:09;8.00;64.70
37910;DHT22;23741;49.446;8.754;2023-04-03T04:11:11;8.00;64.70
37910;DHT22;23741;49.446;8.754;2023-04-03T04:13:14;8.00;64.60
37910;DHT22;23741;49.446;8.754;2023-04-03T04:15:16;8.00;64.60
37910;DHT22;23741;49.446;8.754;2023-04-03T04:17:18;8.00;64.50
37910;DHT22;23741;49.446;8.754;2023-04-03T04:19:19;8.00;64.50
37910;DHT22;23741;49.446;8.754;2023-04-03T04:21:23;8.00;64.50
37910;DHT22;23741;49.446;8.754;2023-04-03T04:23:26;8.00;64.50
37910;DHT22;23741;49.446;8.754;2023-04-03T04:25:28;8.00;64.50
37910;DHT22;23741;49.446;8.754;2023-04-03T04:27:31;8.00;64.40
37910;DHT22;23741;49.446;8.754;2023-04-03T04:29:32;8.00;64.50
37910;DHT22;23741;49.446;8.754;2023-04-03T04:31:38;8.00;64.50
37910;DHT22;23741;49.446;8.754;2023-04-03T04:33:40;8.00;64.60
37910;DHT22;23741;49.446;8.754;2023-04-03T04:35:46;8.00;64.70
37910;DHT22;23741;49.446;8.754;2023-04-03T04:37:48;8.00;64.60
37910;DHT22;23741;49.446;8.754;2023-04-03T04:39:50;8.00;64.50
37910;DHT22;23741;49.446;8.754;2023-04-03T04:41:52;8.00;64.50
37910;DHT22;23741;49.446;8.754;2023-04-03T04:43:54;8.00;64.50
37910;DHT22;23741;49.446;8.754;2023-04-03T04:46:07;8.00;64.60
37910;DHT22;23741;49.446;8.754;2023-04-03T04:48:15;8.00;64.60
37910;DHT22;23741;49.446;8.754;2023-04-03T04:50:17;8.10;64.50
37910;DHT22;23741;49.446;8.754;2023-04-03T04:52:19;8.00;64.50
37910;DHT22;23741;49.446;8.754;2023-04-03T04:54:21;8.00;64.40
37910;DHT22;23741;49.446;8.754;2023-04-03T04:56:23;8.00;64.40
37910;DHT22;23741;49.446;8.754;2023-04-03T04:58:25;8.00;64.40
37910;DHT22;23741;49.446;8.754;2023-04-03T05:00:27;8.00;64.40
37910;DHT22;23741;49.446;8.754;2023-04-03T05:02:29;8.00;64.40
37910;DHT22;23741;49.446;8.754;2023-04-03T05:04:32;8.00;64.40
37910;DHT22;23741;49.446;8.754;2023-04-03T05:06:40;8.00;64.50
37910;DHT22;23741;49.446;8.754;2023-04-03T05:08:47;8.00;64.60
37910;DHT22;23741;49.446;8.754;2023-04-03T05:10:49;8.00;64.50
37910;DHT22;23741;49.446;8.754;2023-04-03T05:12:52;8.00;64.50
37910;DHT22;23741;49.446;8.754;2023-04-03T05:14:54;8.00;64.50
37910;DHT22;23741;49.446;8.754;2023-04-03T05:16:55;8.00;64.60
37910;DHT22;23741;49.446;8.754;2023-04-03T05:19:00;8.00;64.60
37910;DHT22;23741;49.446;8.754;2023-04-03T05:21:03;8.00;64.50
37910;DHT22;23741;49.446;8.754;2023-04-03T05:23:05;7.90;64.60
37910;DHT22;23741;49.446;8.754;2023-04-03T05:25:09;8.00;64.70
37910;DHT22;23741;49.446;8.754;2023-04-03T05:27:12;8.00;64.70
37910;DHT22;23741;49.446;8.754;2023-04-03T05:29:17;8.00;64.70
37910;DHT22;23741;49.446;8.754;2023-04-03T05:31:21;8.00;64.70
37910;DHT22;23741;49.446;8.754;2023-04-03T05:33:23;8.00;64.60
37910;DHT22;23741;49.446;8.754;2023-04-03T05:35:27;8.00;64.70
37910;DHT22;23741;49.446;8.754;2023-04-03T05:37:32;8.00;64.80
37910;DHT22;23741;49.446;8.754;2023-04-03T05:39:34;8.00;64.60
37910;DHT22;23741;49.446;8.754;2023-04-03T05:41:38;8.00;64.60
37910;DHT22;23741;49.446;8.754;2023-04-03T05:43:40;8.00;64.60
37910;DHT22;23741;49.446;8.754;2023-04-03T05:45:43;8.00;64.60
37910;DHT22;23741;49.446;8.754;2023-04-03T05:47:48;8.00;64.70
37910;DHT22;23741;49.446;8.754;2023-04-03T05:49:49;8.00;64.40
37910;DHT22;23741;49.446;8.754;2023-04-03T05:51:52;8.00;64.20
37910;DHT22;23741;49.446;8.754;2023-04-03T05:54:16;8.00;64.20
37910;DHT22;23741;49.446;8.754;2023-04-03T05:56:19;8.00;65.00
37910;DHT22;23741;49.446;8.754;2023-04-03T05:58:22;8.00;64.20
37910;DHT22;23741;49.446;8.754;2023-04-03T06:00:25;8.00;64.20
37910;DHT22;23741;49.446;8.754;2023-04-03T06:02:34;8.00;64.10
37910;DHT22;23741;49.446;8.754;2023-04-03T06:04:37;8.00;64.20
37910;DHT22;23741;49.446;8.754;2023-04-03T06:08:50;7.90;64.40
37910;DHT22;23741;49.446;8.754;2023-04-03T06:10:51;8.00;64.40
37910;DHT22;23741;49.446;8.754;2023-04-03T06:12:53;8.00;64.60
37910;DHT22;23741;49.446;8.754;2023-04-03T06:14:55;8.00;64.70
37910;DHT22;23741;49.446;8.754;2023-04-03T06:16:57;8.00;64.80
37910;DHT22;23741;49.446;8.754;2023-04-03T06:18:59;8.00;64.80
37910;DHT22;23741;49.446;8.754;2023-04-03T06:21:01;8.00;64.50
37910;DHT22;23741;49.446;8.754;2023-04-03T06:23:04;8.00;64.50
37910;DHT22;23741;49.446;8.754;2023-04-03T06:25:08;8.00;64.40
37910;DHT22;23741;49.446;8.754;2023-04-03T06:27:11;8.00;64.40
37910;DHT22;23741;49.446;8.754;2023-04-03T06:29:13;8.00;64.60
37910;DHT22;23741;49.446;8.754;2023-04-03T06:31:15;8.10;64.60
37910;DHT22;23741;49.446;8.754;2023-04-03T06:33:17;8.10;64.50
37910;DHT22;23741;49.446;8.754;2023-04-03T06:35:19;8.10;64.50
37910;DHT22;23741;49.446;8.754;2023-04-03T06:37:22;8.10;64.60
37910;DHT22;23741;49.446;8.754;2023-04-03T06:39:24;8.10;64.60
37910;DHT22;23741;49.446;8.754;2023-04-03T06:41:26;8.10;64.60
37910;DHT22;23741;49.446;8.754;2023-04-03T06:43:28;8.10;64.50
37910;DHT22;23741;49.446;8.754;2023-04-03T06:45:29;8.20;64.40
37910;DHT22;23741;49.446;8.754;2023-04-03T06:47:31;8.10;64.30
37910;DHT22;23741;49.446;8.754;2023-04-03T06:49:33;8.10;64.20
37910;DHT22;23741;49.446;8.754;2023-04-03T06:51:35;8.20;64.30
37910;DHT22;23741;49.446;8.754;2023-04-03T06:53:37;8.20;64.30
37910;DHT22;23741;49.446;8.754;2023-04-03T06:55:39;8.20;64.90
37910;DHT22;23741;49.446;8.754;2023-04-03T06:57:41;8.20;64.00
37910;DHT22;23741;49.446;8.754;2023-04-03T06:59:43;8.20;64.10
37910;DHT22;23741;49.446;8.754;2023-04-03T07:01:45;8.20;64.00
37910;DHT22;23741;49.446;8.754;2023-04-03T07:03:47;8.20;63.80
37910;DHT22;23741;49.446;8.754;2023-04-03T07:05:52;8.20;63.90
37910;DHT22;23741;49.446;8.754;2023-04-03T07:07:54;8.20;64.20
37910;DHT22;23741;49.446;8.754;2023-04-03T07:09:55;8.20;64.10
37910;DHT22;23741;49.446;8.754;2023-04-03T07:11:57;8.10;64.00
37910;DHT22;23741;49.446;8.754;2023-04-03T07:13:59;8.10;63.90
37910;DHT22;23741;49.446;8.754;2023-04-03T07:16:01;8.20;64.20
37910;DHT22;23741;49.446;8.754;2023-04-03T07:18:03;8.20;64.10
37910;DHT22;23741;49.446;8.754;2023-04-03T07:20:07;8.10;64.00
37910;DHT22;23741;49.446;8.754;2023-04-03T07:22:09;8.10;64.10
37910;DHT22;23741;49.446;8.754;2023-04-03T07:24:12;8.10;63.90
37910;DHT22;23741;49.446;8.754;2023-04-03T07:26:17;8.20;64.10
37910;DHT22;23741;49.446;8.754;2023-04-03T07:28:19;8.10;64.70
37910;DHT22;23741;49.446;8.754;2023-04-03T07:30:21;8.20;64.10
37910;DHT22;23741;49.446;8.754;2023-04-03T07:32:23;8.20;64.20
37910;DHT22;23741;49.446;8.754;2023-04-03T07:34:25;8.20;64.00
37910;DHT22;23741;49.446;8.754;2023-04-03T07:36:27;8.20;63.90
37910;DHT22;23741;49.446;8.754;2023-04-03T07:38:29;8.20;63.90
37910;DHT22;23741;49.446;8.754;2023-04-03T07:40:31;8.20;63.90
37910;DHT22;23741;49.446;8.754;2023-04-03T07:42:32;8.20;64.00
37910;DHT22;23741;49.446;8.754;2023-04-03T07:44:34;8.20;63.50
37910;DHT22;23741;49.446;8.754;2023-04-03T07:46:37;8.30;63.60
37910;DHT22;23741;49.446;8.754;2023-04-03T07:48:39;8.30;63.80
37910;DHT22;23741;49.446;8.754;2023-04-03T07:50:41;8.30;63.70
37910;DHT22;23741;49.446;8.754;2023-04-03T07:52:43;8.30;63.60
37910;DHT22;23741;49.446;8.754;2023-04-03T07:54:45;8.40;63.60
37910;DHT22;23741;49.446;8.754;2023-04-03T07:56:47;8.40;63.50
37910;DHT22;23741;49.446;8.754;2023-04-03T07:58:49;8.40;63.50
37910;DHT22;23741;49.446;8.754;2023-04-03T08:00:51;8.40;63.50
37910;DHT22;23741;49.446;8.754;2023-04-03T08:02:53;8.40;63.10
37910;DHT22;23741;49.446;8.754;2023-04-03T08:04:55;8.50;63.30
37910;DHT22;23741;49.446;8.754;2023-04-03T08:06:57;8.50;63.20
37910;DHT22;23741;49.446;8.754;2023-04-03T08:08:58;8.50;63.40
37910;DHT22;23741;49.446;8.754;2023-04-03T08:11:00;8.50;63.00
37910;DHT22;23741;49.446;8.754;2023-04-03T08:13:04;8.50;63.20
37910;DHT22;23741;49.446;8.754;2023-04-03T08:15:06;8.50;63.10
37910;DHT22;23741;49.446;8.754;2023-04-03T08:17:09;8.60;63.00
37910;DHT22;23741;49.446;8.754;2023-04-03T08:19:13;8.60;62.80
37910;DHT22;23741;49.446;8.754;2023-04-03T08:21:26;8.60;62.80
37910;DHT22;23741;49.446;8.754;2023-04-03T08:23:28;8.70;62.60
37910;DHT22;23741;49.446;8.754;2023-04-03T08:25:29;8.70;62.90
37910;DHT22;23741;49.446;8.754;2023-04-03T08:27:32;8.70;62.90
37910;DHT22;23741;49.446;8.754;2023-04-03T08:29:37;8.80;63.10
37910;DHT22;23741;49.446;8.754;2023-04-03T08:31:39;8.80;62.50
37910;DHT22;23741;49.446;8.754;2023-04-03T08:33:40;8.90;62.70
37910;DHT22;23741;49.446;8.754;2023-04-03T08:35:43;8.90;62.40
37910;DHT22;23741;49.446;8.754;2023-04-03T08:37:45;8.90;62.50
37910;DHT22;23741;49.446;8.754;2023-04-03T08:39:47;8.90;62.60
37910;DHT22;23741;49.446;8.754;2023-04-03T08:41:49;9.00;62.80
37910;DHT22;23741;49.446;8.754;2023-04-03T08:44:07;9.00;62.80
37910;DHT22;23741;49.446;8.754;2023-04-03T08:46:11;9.10;61.70
37910;DHT22;23741;49.446;8.754;2023-04-03T08:48:38;9.10;61.90
37910;DHT22;23741;49.446;8.754;2023-04-03T08:50:41;9.20;62.20
37910;DHT22;23741;49.446;8.754;2023-04-03T08:52:52;9.20;62.30
37910;DHT22;23741;49.446;8.754;2023-04-03T08:54:57;9.30;61.90
37910;DHT22;23741;49.446;8.754;2023-04-03T08:57:02;9.30;61.60
37910;DHT22;23741;49.446;8.754;2023-04-03T08:59:05;9.40;61.70
37910;DHT22;23741;49.446;8.754;2023-04-03T09:01:17;9.40;61.70
37910;DHT22;23741;49.446;8.754;2023-04-03T09:03:20;9.40;61.80
37910;DHT22;23741;49.446;8.754;2023-04-03T09:05:36;9.50;60.80
37910;DHT22;23741;49.446;8.754;2023-04-03T09:07:48;9.50;60.80
37910;DHT22;23741;49.446;8.754;2023-04-03T09:09:52;9.50;60.70
37910;DHT22;23741;49.446;8.754;2023-04-03T09:16:01;9.70;59.90
37910;DHT22;23741;49.446;8.754;2023-04-03T09:18:15;9.70;60.50
37910;DHT22;23741;49.446;8.754;2023-04-03T09:22:31;9.70;58.70
37910;DHT22;23741;49.446;8.754;2023-04-03T09:24:39;9.70;59.50
37910;DHT22;23741;49.446;8.754;2023-04-03T09:26:52;9.80;59.90
37910;DHT22;23741;49.446;8.754;2023-04-03T09:28:55;9.80;59.70
37910;DHT22;23741;49.446;8.754;2023-04-03T09:30:59;9.80;59.70
37910;DHT22;23741;49.446;8.754;2023-04-03T09:33:01;9.80;59.90
37910;DHT22;23741;49.446;8.754;2023-04-03T09:35:27;9.90;60.70
37910;DHT22;23741;49.446;8.754;2023-04-03T09:37:46;9.90;59.90
37910;DHT22;23741;49.446;8.754;2023-04-03T09:39:52;9.90;60.00
37910;DHT22;23741;49.446;8.754;2023-04-03T09:43:57;10.00;59.80
37910;DHT22;23741;49.446;8.754;2023-04-03T09:48:36;10.10;59.20
37910;DHT22;23741;49.446;8.754;2023-04-03T09:50:40;10.10;59.30
37910;DHT22;23741;49.446;8.754;2023-04-03T09:53:04;10.20;58.20
37910;DHT22;23741;49.446;8.754;2023-04-03T09:55:08;10.20;58.70
37910;DHT22;23741;49.446;8.754;2023-04-03T09:57:11;10.20;58.80
37910;DHT22;23741;49.446;8.754;2023-04-03T09:59:14;10.20;58.60
37910;DHT22;23741;49.446;8.754;2023-04-03T10:01:21;10.30;59.00
37910;DHT22;23741;49.446;8.754;2023-04-03T10:03:31;10.30;58.90
37910;DHT22;23741;49.446;8.754;2023-04-03T10:05:39;10.40;59.30
37910;DHT22;23741;49.446;8.754;2023-04-03T10:07:41;10.40;58.30
37910;DHT22;23741;49.446;8.754;2023-04-03T10:09:55;10.40;59.00
37910;DHT22;23741;49.446;8.754;2023-04-03T10:14:00;10.50;58.80
37910;DHT22;23741;49.446;8.754;2023-04-03T10:18:06;10.50;59.00
37910;DHT22;23741;49.446;8.754;2023-04-03T10:20:43;10.60;59.00
37910;DHT22;23741;49.446;8.754;2023-04-03T10:25:44;10.70;59.50
37910;DHT22;23741;49.446;8.754;2023-04-03T10:38:22;11.00;58.70
37910;DHT22;23741;49.446;8.754;2023-04-03T10:42:28;11.20;58.30
37910;DHT22;23741;49.446;8.754;2023-04-03T10:46:38;11.30;57.90
37910;DHT22;23741;49.446;8.754;2023-04-03T10:57:46;11.40;56.50
37910;DHT22;23741;49.446;8.754;2023-04-03T11:01:51;11.50;57.70
37910;DHT22;23741;49.446;8.754;2023-04-03T11:03:56;11.50;58.00
37910;DHT22;23741;49.446;8.754;2023-04-03T11:06:00;11.50;58.10
37910;DHT22;23741;49.446;8.754;2023-04-03T11:08:04;11.60;57.20
37910;DHT22;23741;49.446;8.754;2023-04-03T11:10:11;11.60;57.40
37910;DHT22;23741;49.446;8.754;2023-04-03T11:12:35;11.70;57.30
37910;DHT22;23741;49.446;8.754;2023-04-03T11:14:37;11.70;57.10
37910;DHT22;23741;49.446;8.754;2023-04-03T11:16:40;11.70;57.30
37910;DHT22;23741;49.446;8.754;2023-04-03T11:19:05;11.70;57.60
37910;DHT22;23741;49.446;8.754;2023-04-03T11:21:16;11.80;57.80
37910;DHT22;23741;49.446;8.754;2023-04-03T11:23:54;11.80;57.40
37910;DHT22;23741;49.446;8.754;2023-04-03T11:25:51;11.80;57.70
37910;DHT22;23741;49.446;8.754;2023-04-03T11:27:55;11.80;57.70
37910;DHT22;23741;49.446;8.754;2023-04-03T11:29:58;11.90;57.70
37910;DHT22;23741;49.446;8.754;2023-04-03T11:34:11;11.90;57.60
37910;DHT22;23741;49.446;8.754;2023-04-03T11:36:19;11.90;57.50
37910;DHT22;23741;49.446;8.754;2023-04-03T11:38:36;11.90;57.10
37910;DHT22;23741;49.446;8.754;2023-04-03T11:40:40;11.90;57.30
37910;DHT22;23741;49.446;8.754;2023-04-03T11:42:45;11.90;57.20
37910;DHT22;23741;49.446;8.754;2023-04-03T11:44:48;12.00;57.10
37910;DHT22;23741;49.446;8.754;2023-04-03T11:46:51;11.90;56.70
37910;DHT22;23741;49.446;8.754;2023-04-03T11:48:57;11.90;56.60
37910;DHT22;23741;49.446;8.754;2023-04-03T11:59:44;12.00;55.10
37910;DHT22;23741;49.446;8.754;2023-04-03T12:08:25;12.00;56.00
37910;DHT22;23741;49.446;8.754;2023-04-03T12:10:26;12.00;55.90
37910;DHT22;23741;49.446;8.754;2023-04-03T12:12:34;11.90;56.00
37910;DHT22;23741;49.446;8.754;2023-04-03T12:14:37;11.90;56.10
37910;DHT22;23741;49.446;8.754;2023-04-03T12:20:55;11.90;56.30
37910;DHT22;23741;49.446;8.754;2023-04-03T12:25:46;12.00;57.40
37910;DHT22;23741;49.446;8.754;2023-04-03T12:27:49;12.10;56.20
37910;DHT22;23741;49.446;8.754;2023-04-03T12:34:18;12.20;55.90
37910;DHT22;23741;49.446;8.754;2023-04-03T12:36:28;12.20;56.20
37910;DHT22;23741;49.446;8.754;2023-04-03T12:38:45;12.30;56.60
37910;DHT22;23741;49.446;8.754;2023-04-03T12:40:52;12.30;56.80
37910;DHT22;23741;49.446;8.754;2023-04-03T12:45:10;12.40;56.00
37910;DHT22;23741;49.446;8.754;2023-04-03T12:47:34;12.40;55.70
37910;DHT22;23741;49.446;8.754;2023-04-03T12:49:41;12.40;55.50
37910;DHT22;23741;49.446;8.754;2023-04-03T12:51:44;12.40;55.70
37910;DHT22;23741;49.446;8.754;2023-04-03T12:53:47;12.40;56.00
37910;DHT22;23741;49.446;8.754;2023-04-03T12:55:54;12.50;55.30
37910;DHT22;23741;49.446;8.754;2023-04-03T12:57:55;12.50;55.30
37910;DHT22;23741;49.446;8.754;2023-04-03T12:59:57;12.50;55.80
37910;DHT22;23741;49.446;8.754;2023-04-03T13:02:00;12.50;55.60
37910;DHT22;23741;49.446;8.754;2023-04-03T13:04:02;12.50;55.00
37910;DHT22;23741;49.446;8.754;2023-04-03T13:06:05;12.60;55.70
37910;DHT22;23741;49.446;8.754;2023-04-03T13:08:09;12.60;56.30
37910;DHT22;23741;49.446;8.754;2023-04-03T13:12:15;12.80;57.60
37910;DHT22;23741;49.446;8.754;2023-04-03T13:14:18;12.90;57.70
37910;DHT22;23741;49.446;8.754;2023-04-03T13:16:21;13.00;57.90
37910;DHT22;23741;49.446;8.754;2023-04-03T13:20:32;13.20;57.70
37910;DHT22;23741;49.446;8.754;2023-04-03T13:22:35;13.30;57.80
37910;DHT22;23741;49.446;8.754;2023-04-03T13:24:41;13.40;57.30
37910;DHT22;23741;49.446;8.754;2023-04-03T13:26:43;13.50;55.80
37910;DHT22;23741;49.446;8.754;2023-04-03T13:28:45;13.60;56.10
37910;DHT22;23741;49.446;8.754;2023-04-03T13:32:59;13.70;55.10
37910;DHT22;23741;49.446;8.754;2023-04-03T13:35:01;13.70;54.10
37910;DHT22;23741;49.446;8.754;2023-04-03T13:37:29;13.70;55.00
37910;DHT22;23741;49.446;8.754;2023-04-03T13:39:32;13.70;55.00
37910;DHT22;23741;49.446;8.754;2023-04-03T13:41:35;13.80;56.00
37910;DHT22;23741;49.446;8.754;2023-04-03T13:43:37;13.90;55.80
37910;DHT22;23741;49.446;8.754;2023-04-03T13:45:40;13.90;55.30
37910;DHT22;23741;49.446;8.754;2023-04-03T13:48:18;14.00;55.80
37910;DHT22;23741;49.446;8.754;2023-04-03T13:50:25;14.10;55.40
37910;DHT22;23741;49.446;8.754;2023-04-03T13:52:32;14.20;52.90
37910;DHT22;23741;49.446;8.754;2023-04-03T13:54:38;14.20;53.90
37910;DHT22;23741;49.446;8.754;2023-04-03T13:56:40;14.20;54.90
37910;DHT22;23741;49.446;8.754;2023-04-03T13:58:52;14.30;55.20
37910;DHT22;23741;49.446;8.754;2023-04-03T14:03:02;14.40;54.70
37910;DHT22;23741;49.446;8.754;2023-04-03T14:05:04;14.50;55.00
37910;DHT22;23741;49.446;8.754;2023-04-03T14:07:12;14.60;54.70
37910;DHT22;23741;49.446;8.754;2023-04-03T14:09:15;14.70;54.00
37910;DHT22;23741;49.446;8.754;2023-04-03T14:11:18;14.70;54.10
37910;DHT22;23741;49.446;8.754;2023-04-03T14:13:20;14.80;53.80
37910;DHT22;23741;49.446;8.754;2023-04-03T14:15:23;14.80;53.70
37910;DHT22;23741;49.446;8.754;2023-04-03T14:17:26;14.80;51.70
37910;DHT22;23741;49.446;8.754;2023-04-03T14:19:33;14.80;52.00
37910;DHT22;23741;49.446;8.754;2023-04-03T14:21:37;14.80;48.50
37910;DHT22;23741;49.446;8.754;2023-04-03T14:23:38;14.70;50.90
37910;DHT22;23741;49.446;8.754;2023-04-03T14:25:40;14.70;50.80
37910;DHT22;23741;49.446;8.754;2023-04-03T14:27:44;14.70;51.50
37910;DHT22;23741;49.446;8.754;2023-04-03T14:29:47;14.70;52.30
37910;DHT22;23741;49.446;8.754;2023-04-03T14:31:50;14.70;52.00
37910;DHT22;23741;49.446;8.754;2023-04-03T14:34:04;14.70;50.70
37910;DHT22;23741;49.446;8.754;2023-04-03T14:36:13;14.80;52.60
37910;DHT22;23741;49.446;8.754;2023-04-03T14:40:24;14.90;50.50
37910;DHT22;23741;49.446;8.754;2023-04-03T14:42:28;14.90;50.80
37910;DHT22;23741;49.446;8.754;2023-04-03T14:44:31;15.00;50.90
37910;DHT22;23741;49.446;8.754;2023-04-03T14:46:34;15.10;51.50